Time;durP1;ratioP1;P1;durP2;ratioP2;P2;SDS_P1;SDS_P2;PMS_P1;PMS_P2;Temp;Humidity;BMP_temperature;BMP_pressure;BME280_temperature;BME280_humidity;BME280_pressure;Samples;Min_cycle;Max_cycle;Signal;HPM_P1;HPM_P2
2024/01/03 00:00:08;;;;;;;1.90;0.68;;;;;;;10.19;100.00;98709.03;5098228;27;97838;-27
2024/01/03 00:02:34;;;;;;;1.45;0.55;;;;;;;10.18;100.00;98718.16;5098310;27;96584;-27
2024/01/03 00:04:59;;;;;;;5.15;0.80;;;;;;;10.17;100.00;98729.94;5098730;27;96828;-29
2024/01/03 00:07:25;;;;;;;4.93;0.85;;;;;;;10.15;100.00;98729.28;5098498;27;99887;-27
2024/01/03 00:09:55;;;;;;;7.05;0.57;;;;;;;10.15;100.00;98741.91;5098425;27;99177;-28
2024/01/03 00:12:24;;;;;;;3.97;0.63;;;;;;;10.16;100.00;98741.78;5080146;27;96556;-27
2024/01/03 00:14:50;;;;;;;2.83;0.75;;;;;;;10.14;100.00;98743.78;5079966;27;96916;-27
2024/01/03 00:17:16;;;;;;;5.28;0.65;;;;;;;10.21;100.00;98753.03;5079694;27;101488;-27
2024/01/03 00:19:42;;;;;;;10.20;1.15;;;;;;;10.14;100.00;98749.19;5098643;27;99177;-27
2024/01/03 00:22:13;;;;;;;3.60;0.80;;;;;;;10.22;100.00;98772.81;5079955;27;96762;-27
2024/01/03 00:24:46;;;;;;;5.17;0.83;;;;;;;10.18;100.00;98761.44;5098576;27;96758;-27
2024/01/03 00:27:12;;;;;;;2.70;0.65;;;;;;;10.23;100.00;98776.41;5079064;27;99080;-27
2024/01/03 00:29:43;;;;;;;2.55;0.73;;;;;;;10.27;100.00;98786.75;5079459;27;100819;-27
2024/01/03 00:32:09;;;;;;;0.70;0.38;;;;;;;10.20;100.00;98772.97;5098433;27;96719;-29
2024/01/03 00:34:41;;;;;;;2.25;0.40;;;;;;;10.23;100.00;98784.50;5098964;27;96800;-27
2024/01/03 00:37:23;;;;;;;;;;;;;;;10.24;100.00;98788.91;5079804;27;100882;-27
2024/01/03 00:39:49;;;;;;;2.40;0.80;;;;;;;10.25;100.00;98779.78;5097681;27;99240;-27
2024/01/03 00:42:14;;;;;;;4.38;0.63;;;;;;;10.22;100.00;98780.94;5097897;27;96651;-28
2024/01/03 00:44:40;;;;;;;5.78;0.95;;;;;;;10.24;100.00;98792.47;5098080;27;96750;-27
2024/01/03 00:47:06;;;;;;;2.30;0.52;;;;;;;10.21;100.00;98790.91;5097978;27;97899;-27
2024/01/03 00:49:31;;;;;;;2.40;0.77;;;;;;;10.27;100.00;98797.56;5097937;27;98426;-27
2024/01/03 00:51:59;;;;;;;1.33;0.38;;;;;;;10.29;100.00;98801.03;5097905;27;96584;-27
2024/01/03 00:54:26;;;;;;;1.10;0.55;;;;;;;10.29;100.00;98805.59;5079487;27;96922;-27
2024/01/03 00:56:52;;;;;;;2.97;1.00;;;;;;;10.28;100.00;98799.34;5079238;27;101339;-26
2024/01/03 00:59:18;;;;;;;1.75;0.80;;;;;;;10.30;100.00;98816.28;5078401;27;101088;-27
2024/01/03 01:01:44;;;;;;;3.47;1.13;;;;;;;10.25;100.00;98805.00;5097919;27;96541;-27
2024/01/03 01:04:10;;;;;;;7.80;0.70;;;;;;;10.29;100.00;98824.53;5079344;27;96850;-28
2024/01/03 01:06:35;;;;;;;3.40;0.90;;;;;;;10.24;100.00;98834.91;5097682;27;97372;-28
2024/01/03 01:09:03;;;;;;;4.80;0.73;;;;;;;10.22;100.00;98816.09;5097914;27;97284;-27
2024/01/03 01:11:32;;;;;;;12.98;1.17;;;;;;;10.18;100.00;98815.53;5097667;27;96664;-28
2024/01/03 01:13:57;;;;;;;10.82;1.30;;;;;;;10.19;100.00;98830.75;5098036;27;96846;-26
2024/01/03 01:16:22;;;;;;;4.07;0.77;;;;;;;10.25;100.00;98836.59;5096897;27;99376;-29
2024/01/03 01:18:48;;;;;;;1.95;0.98;;;;;;;10.25;100.00;98842.00;5097132;27;103781;-28
2024/01/03 01:21:13;;;;;;;5.15;1.10;;;;;;;10.21;100.00;98857.69;5097559;27;96514;-27
2024/01/03 01:23:42;;;;;;;3.15;0.70;;;;;;;10.15;100.00;98852.84;5097875;27;96859;-28
2024/01/03 01:26:08;;;;;;;2.28;0.70;;;;;;;10.19;100.00;98867.78;5078697;27;100748;-27
2024/01/03 01:28:33;;;;;;;1.55;0.50;;;;;;;10.24;100.00;98872.78;5079102;27;101045;-27
2024/01/03 01:30:58;;;;;;;3.67;0.80;;;;;;;10.25;100.00;98872.66;5097803;27;96515;-28
2024/01/03 01:33:24;;;;;;;5.63;1.05;;;;;;;10.19;100.00;98881.31;5098024;27;96821;-27
2024/01/03 01:35:49;;;;;;;5.53;0.52;;;;;;;10.17;100.00;98877.91;5096892;27;99300;-27
2024/01/03 01:38:14;;;;;;;2.63;0.73;;;;;;;10.14;100.00;98884.44;5097130;27;97239;-27
2024/01/03 01:40:40;;;;;;;7.18;0.68;;;;;;;10.20;100.00;98880.31;5096659;27;96470;-27
2024/01/03 01:43:05;;;;;;;2.13;0.55;;;;;;;10.20;100.00;98867.66;5097172;27;96863;-27
2024/01/03 01:45:30;;;;;;;4.20;1.02;;;;;;;10.23;100.00;98887.31;5097131;27;97463;-27
2024/01/03 01:47:56;;;;;;;5.07;0.52;;;;;;;10.24;100.00;98899.84;5096699;27;102830;-27
2024/01/03 01:50:21;;;;;;;2.03;0.57;;;;;;;10.17;100.00;98903.09;5097215;27;96494;-27
2024/01/03 01:52:48;;;;;;;2.72;0.55;;;;;;;10.11;100.00;98900.97;5097126;27;96784;-28
2024/01/03 01:55:14;;;;;;;1.63;0.85;;;;;;;10.15;100.00;98918.66;5077629;27;101300;-27
2024/01/03 01:57:41;;;;;;;4.82;1.05;;;;;;;10.16;100.00;98904.09;5096686;27;99097;-27
2024/01/03 02:00:07;;;;;;;3.85;1.00;;;;;;;10.16;100.00;98903.25;5074510;27;96953;-26
2024/01/03 02:02:35;;;;;;;1.02;0.30;;;;;;;10.20;100.00;98912.78;5075090;27;96870;-27
2024/01/03 02:05:01;;;;;;;3.55;0.98;;;;;;;10.16;100.00;98901.41;5074050;27;100884;-27
2024/01/03 02:07:26;;;;;;;1.42;0.43;;;;;;;10.18;100.00;98912.94;5075967;27;99211;-27
2024/01/03 02:09:52;;;;;;;1.83;0.70;;;;;;;10.18;100.00;98912.09;5076615;27;96473;-27
2024/01/03 02:12:25;;;;;;;4.40;1.15;;;;;;;10.23;100.00;98909.81;5074781;27;96805;-27
2024/01/03 02:14:50;;;;;;;0.45;0.30;;;;;;;10.23;100.00;98906.25;5074593;27;100585;-27
2024/01/03 02:17:17;;;;;;;4.57;1.02;;;;;;;10.16;100.00;98908.66;5075808;27;104788;-28
2024/01/03 02:19:42;;;;;;;2.90;0.70;;;;;;;10.22;100.00;98908.09;5074575;27;96852;-27
2024/01/03 02:22:08;;;;;;;7.35;1.42;;;;;;;10.16;100.00;98906.81;5076862;27;96768;-28
2024/01/03 02:24:33;;;;;;;1.75;0.82;;;;;;;10.21;100.00;98903.69;5075640;27;99332;-28
2024/01/03 02:26:58;;;;;;;2.42;0.70;;;;;;;10.16;100.00;98912.22;5075637;27;99110;-27
2024/01/03 02:29:24;;;;;;;4.70;1.02;;;;;;;10.16;100.00;98901.41;5075360;27;96505;-27
2024/01/03 02:31:49;;;;;;;5.78;0.52;;;;;;;10.20;100.00;98915.50;5075977;27;97045;-27
2024/01/03 02:34:14;;;;;;;5.00;0.50;;;;;;;10.26;100.00;98914.94;5075381;27;98836;-27
2024/01/03 02:36:40;;;;;;;1.50;0.50;;;;;;;10.25;100.00;98934.88;5075871;27;97592;-28
2024/01/03 02:39:06;;;;;;;3.25;0.68;;;;;;;10.25;100.00;98924.06;5076116;27;96639;-27
2024/01/03 02:41:32;;;;;;;3.60;1.05;;;;;;;10.31;100.00;98925.38;5074167;27;96773;-27
2024/01/03 02:43:57;;;;;;;0.55;0.22;;;;;;;10.29;100.00;98933.63;5075738;27;97979;-27
2024/01/03 02:46:22;;;;;;;5.40;0.85;;;;;;;10.19;100.00;98925.47;5075992;27;97755;-27
2024/01/03 02:48:48;;;;;;;2.88;0.60;;;;;;;10.23;100.00;98934.16;5075693;27;96654;-27
2024/01/03 02:51:18;;;;;;;2.45;0.90;;;;;;;10.25;100.00;98939.41;5075336;27;96814;-27
2024/01/03 02:53:43;;;;;;;4.45;1.00;;;;;;;10.26;100.00;98950.13;5073553;27;101470;-28
2024/01/03 02:56:09;;;;;;;6.40;0.50;;;;;;;10.26;100.00;98951.97;5075893;27;97397;-27
2024/01/03 02:58:35;;;;;;;4.68;1.10;;;;;;;10.28;100.00;98936.47;5075387;27;96667;-27
2024/01/03 03:01:00;;;;;;;9.98;0.90;;;;;;;10.26;100.00;98930.31;5093862;27;96896;-27
2024/01/03 03:03:25;;;;;;;7.35;0.98;;;;;;;10.28;100.00;98941.88;5095443;27;99189;-27
2024/01/03 03:05:50;;;;;;;3.33;1.00;;;;;;;10.18;100.00;98933.75;5095979;27;105433;-27
2024/01/03 03:08:16;;;;;;;6.22;1.05;;;;;;;10.13;100.00;98928.75;5101583;27;96490;-28
2024/01/03 03:10:41;;;;;;;0.52;0.32;;;;;;;10.20;100.00;98948.84;5103742;27;96954;-27
2024/01/03 03:13:06;;;;;;;10.90;1.90;;;;;;;10.14;100.00;98932.28;5102800;27;98611;-27
2024/01/03 03:15:32;;;;;;;8.07;1.27;;;;;;;10.23;100.00;98945.00;5102796;27;97740;-28
2024/01/03 03:17:57;;;;;;;5.93;0.90;;;;;;;10.23;100.00;98941.44;5102397;27;96663;-28
2024/01/03 03:20:22;;;;;;;4.00;0.57;;;;;;;10.23;100.00;98938.72;5102758;27;96817;-27
2024/01/03 03:22:48;;;;;;;5.45;0.82;;;;;;;10.25;100.00;98940.31;5102796;27;98062;-28
2024/01/03 03:25:13;;;;;;;4.60;0.88;;;;;;;10.27;100.00;98940.16;5102855;27;97254;-27
2024/01/03 03:27:38;;;;;;;3.55;1.00;;;;;;;10.25;100.00;98950.25;5102892;27;96419;-27
2024/01/03 03:30:04;;;;;;;2.13;0.68;;;;;;;10.19;100.00;98940.84;5103034;27;96766;-29
2024/01/03 03:32:30;;;;;;;4.57;0.60;;;;;;;10.23;100.00;98944.16;5083553;27;101290;-27
2024/01/03 03:34:55;;;;;;;7.43;1.60;;;;;;;10.16;100.00;98944.69;5102805;27;97730;-27
2024/01/03 03:37:20;;;;;;;8.45;0.80;;;;;;;10.16;100.00;98941.97;5102660;27;96451;-27
2024/01/03 03:39:46;;;;;;;8.32;1.00;;;;;;;10.17;100.00;98940.13;5102774;27;96824;-27
2024/01/03 03:42:11;;;;;;;3.88;0.90;;;;;;;10.10;100.00;98947.94;5101538;27;104414;-26
2024/01/03 03:44:40;;;;;;;1.80;0.80;;;;;;;10.15;100.00;98951.09;5102134;27;100082;-27
2024/01/03 03:47:05;;;;;;;12.27;1.75;;;;;;;10.09;100.00;98948.94;5102851;27;96515;-27
2024/01/03 03:49:31;;;;;;;11.95;1.08;;;;;;;10.10;100.00;98953.34;5102598;27;96778;-27
2024/01/03 03:51:56;;;;;;;3.63;0.73;;;;;;;10.11;100.00;98965.91;5102091;27;97555;-27
2024/01/03 03:54:21;;;;;;;6.28;1.05;;;;;;;10.11;100.00;98974.00;5102553;27;97218;-27
2024/01/03 03:56:47;;;;;;;8.15;1.00;;;;;;;10.16;100.00;98950.09;5102360;27;96531;-27
2024/01/03 03:59:13;;;;;;;7.30;1.40;;;;;;;10.18;100.00;98956.22;5102303;27;96889;-27
2024/01/03 04:01:38;;;;;;;6.25;2.00;;;;;;;10.17;100.00;98946.38;5102273;27;97925;-29
2024/01/03 04:04:04;;;;;;;9.68;1.23;;;;;;;10.19;100.00;98957.94;5101883;27;97817;-28
2024/01/03 04:06:29;;;;;;;10.25;1.52;;;;;;;10.18;100.00;98961.66;5101615;27;96617;-27
2024/01/03 04:08:55;;;;;;;5.93;0.55;;;;;;;10.20;100.00;98953.38;5102146;27;96879;-29
2024/01/03 04:11:20;;;;;;;8.45;1.35;;;;;;;10.21;100.00;98966.78;5101723;27;99923;-27
2024/01/03 04:13:45;;;;;;;8.77;1.02;;;;;;;10.23;100.00;98974.75;5101855;27;99181;-27
2024/01/03 04:16:11;;;;;;;6.75;1.10;;;;;;;10.21;100.00;98972.19;5102169;27;96645;-27
2024/01/03 04:18:36;;;;;;;2.72;0.82;;;;;;;10.25;100.00;98963.78;5099997;27;96749;-28
2024/01/03 04:21:05;;;;;;;6.40;1.05;;;;;;;10.21;100.00;98955.94;5079835;27;101003;-27
2024/01/03 04:23:30;;;;;;;10.13;1.92;;;;;;;10.27;100.00;98975.31;5080147;27;99224;-27
2024/01/03 04:25:56;;;;;;;6.95;0.98;;;;;;;10.25;100.00;98977.31;5098748;27;96525;-28
2024/01/03 04:28:21;;;;;;;1.65;1.10;;;;;;;10.23;100.00;98961.22;5098476;27;96939;-27
2024/01/03 04:30:46;;;;;;;3.83;1.20;;;;;;;10.27;100.00;98968.06;5098138;27;97087;-27
2024/01/03 04:33:12;;;;;;;2.85;0.82;;;;;;;10.24;100.00;98972.91;5098209;27;97238;-27
2024/01/03 04:35:37;;;;;;;6.57;1.00;;;;;;;10.24;100.00;98960.22;5098735;27;96611;-29
2024/01/03 04:38:03;;;;;;;1.52;0.65;;;;;;;10.28;100.00;98968.94;5098619;27;96814;-27
2024/01/03 04:40:32;;;;;;;5.78;1.05;;;;;;;10.27;100.00;98970.75;5098120;27;98048;-27
2024/01/03 04:42:58;;;;;;;3.55;0.73;;;;;;;10.25;100.00;98980.00;5079336;27;100584;-27
2024/01/03 04:45:24;;;;;;;2.05;0.43;;;;;;;10.25;100.00;98975.47;5098571;27;96484;-27
2024/01/03 04:47:49;;;;;;;1.40;0.45;;;;;;;10.22;100.00;98981.16;5098796;27;96676;-27
2024/01/03 04:50:14;;;;;;;8.63;1.30;;;;;;;10.23;100.00;98976.63;5097976;27;98865;-27
2024/01/03 04:52:40;;;;;;;4.05;0.65;;;;;;;10.18;100.00;98980.59;5098089;27;96724;-27
2024/01/03 04:55:05;;;;;;;2.47;0.57;;;;;;;10.17;100.00;98981.56;5097531;27;96513;-27
2024/01/03 04:57:34;;;;;;;2.58;0.28;;;;;;;10.19;100.00;98998.50;5098071;27;96860;-27
2024/01/03 05:00:00;;;;;;;0.98;0.65;;;;;;;10.19;100.00;98989.53;5074299;27;101296;-27
2024/01/03 05:02:25;;;;;;;9.40;0.98;;;;;;;10.18;100.00;98974.31;5079159;27;101382;-27
2024/01/03 05:04:51;;;;;;;1.35;0.43;;;;;;;10.18;100.00;98972.47;5097936;27;96425;-27
2024/01/03 05:07:17;;;;;;;7.43;0.75;;;;;;;10.18;100.00;98977.88;5097922;27;96857;-27
2024/01/03 05:09:43;;;;;;;1.65;0.13;;;;;;;10.15;100.00;98985.41;5097704;27;97828;-27
2024/01/03 05:12:08;;;;;;;2.13;0.80;;;;;;;10.09;100.00;98973.28;5097983;27;99295;-27
2024/01/03 05:14:34;;;;;;;3.08;0.68;;;;;;;10.03;100.00;98973.81;5079197;27;96592;-27
2024/01/03 05:17:00;;;;;;;2.05;0.30;;;;;;;10.06;100.00;98983.50;5097955;27;96788;-27
2024/01/03 05:19:25;;;;;;;2.25;0.73;;;;;;;10.05;100.00;98987.22;5097015;27;97963;-28
2024/01/03 05:21:50;;;;;;;5.43;0.50;;;;;;;10.05;100.00;98974.56;5097648;27;97459;-27
2024/01/03 05:24:16;;;;;;;2.53;0.60;;;;;;;10.04;100.00;98980.13;5097664;27;96470;-27
2024/01/03 05:26:41;;;;;;;1.50;0.28;;;;;;;10.00;100.00;98974.97;5098063;27;96796;-28
2024/01/03 05:29:07;;;;;;;1.92;0.43;;;;;;;9.96;100.00;98964.56;5097384;27;97880;-27
2024/01/03 05:31:32;;;;;;;5.65;0.60;;;;;;;10.01;100.00;98978.53;5096952;27;99204;-27
2024/01/03 05:33:57;;;;;;;1.60;0.57;;;;;;;9.99;100.00;98978.66;5097617;27;96644;-27
2024/01/03 05:36:23;;;;;;;4.63;0.82;;;;;;;10.02;100.00;98985.66;5098064;27;96918;-29
2024/01/03 05:38:48;;;;;;;1.20;0.32;;;;;;;9.96;100.00;98975.38;5097231;27;97461;-27
2024/01/03 05:41:13;;;;;;;0.17;0.17;;;;;;;9.90;100.00;98973.22;5096784;27;99120;-27
2024/01/03 05:43:39;;;;;;;1.17;0.73;;;;;;;9.91;100.00;98985.75;5097093;27;96542;-27
2024/01/03 05:46:04;;;;;;;4.88;0.52;;;;;;;9.83;100.00;98963.94;5097241;27;96781;-27
2024/01/03 05:48:29;;;;;;;2.00;0.40;;;;;;;9.83;100.00;98989.13;5097361;27;97450;-28
2024/01/03 05:50:55;;;;;;;2.13;0.25;;;;;;;9.83;100.00;98980.19;5096914;27;98318;-29
2024/01/03 05:53:20;;;;;;;1.45;0.32;;;;;;;9.78;100.00;98976.03;5097386;27;96552;-27
2024/01/03 05:55:45;;;;;;;0.20;0.10;;;;;;;9.83;100.00;98982.88;5097128;27;96792;-27
2024/01/03 05:58:10;;;;;;;3.15;0.73;;;;;;;9.77;100.00;98974.31;5097118;27;97937;-27
2024/01/03 06:00:36;;;;;;;0.93;0.17;;;;;;;9.83;100.00;98982.88;5096611;27;97949;-27
2024/01/03 06:03:02;;;;;;;1.02;0.13;;;;;;;9.77;100.00;98979.72;5097412;27;96516;-28
2024/01/03 06:05:27;;;;;;;0.20;0.10;;;;;;;9.78;100.00;98986.84;5078368;27;96738;-27
2024/01/03 06:07:53;;;;;;;1.80;0.50;;;;;;;9.81;100.00;98984.84;5096583;27;97267;-27
2024/01/03 06:10:18;;;;;;;6.43;0.60;;;;;;;9.74;100.00;98979.97;5096637;27;99117;-27
2024/01/03 06:12:44;;;;;;;1.17;0.20;;;;;;;9.72;100.00;98987.38;5097202;27;96771;-27
2024/01/03 06:15:09;;;;;;;2.45;0.70;;;;;;;9.65;100.00;98986.19;5077967;27;96897;-27
2024/01/03 06:17:36;;;;;;;0.52;0.38;;;;;;;9.65;100.00;98969.13;5096716;27;97938;-27
2024/01/03 06:20:01;;;;;;;4.20;0.35;;;;;;;9.66;100.00;98992.47;5077859;27;101195;-27
2024/01/03 06:22:27;;;;;;;0.17;0.13;;;;;;;9.66;100.00;98996.03;5096813;27;96509;-27
2024/01/03 06:24:52;;;;;;;1.25;0.38;;;;;;;9.64;100.00;99000.72;5097316;27;96731;-28
2024/01/03 06:27:17;;;;;;;0.00;0.00;;;;;;;9.56;100.00;98997.84;5096133;27;99381;-27
2024/01/03 06:29:43;;;;;;;1.55;0.35;;;;;;;9.56;100.00;99011.34;5096387;27;97233;-27
2024/01/03 06:32:08;;;;;;;0.47;0.17;;;;;;;9.54;100.00;98999.81;5096119;27;96624;-27
2024/01/03 06:34:34;;;;;;;0.68;0.15;;;;;;;9.51;100.00;99003.63;5096779;27;96838;-27
2024/01/03 06:37:00;;;;;;;5.97;0.13;;;;;;;9.52;100.00;99007.19;5077764;27;100828;-27
2024/01/03 06:39:26;;;;;;;2.25;0.25;;;;;;;9.49;100.00;99007.47;5077718;27;100938;-27
2024/01/03 06:41:51;;;;;;;1.63;0.63;;;;;;;9.48;100.00;99016.56;5077162;27;96695;-28
2024/01/03 06:44:17;;;;;;;0.57;0.22;;;;;;;9.47;100.00;99012.16;5096613;27;96771;-27
2024/01/03 06:46:42;;;;;;;1.08;0.20;;;;;;;9.45;100.00;99006.00;5096150;27;99966;-27
2024/01/03 06:49:07;;;;;;;0.03;0.00;;;;;;;9.40;100.00;99019.06;5096351;27;99492;-27
2024/01/03 06:51:33;;;;;;;3.35;0.35;;;;;;;9.39;100.00;99017.34;5095957;27;96845;-29
2024/01/03 06:53:58;;;;;;;0.20;0.05;;;;;;;9.40;100.00;99022.63;5096353;27;96829;-27
2024/01/03 06:56:24;;;;;;;0.65;0.20;;;;;;;9.34;100.00;99021.31;5095784;27;97538;-27
2024/01/03 06:58:50;;;;;;;2.50;0.52;;;;;;;9.40;100.00;99030.72;5095415;27;99338;-27
2024/01/03 07:01:16;;;;;;;0.98;0.20;;;;;;;9.37;100.00;99014.78;5095947;27;96702;-27
2024/01/03 07:03:41;;;;;;;2.70;0.77;;;;;;;9.41;100.00;99020.78;5096003;27;96823;-27
2024/01/03 07:06:07;;;;;;;1.40;0.10;;;;;;;9.39;100.00;99028.16;5095826;27;99519;-27
2024/01/03 07:08:32;;;;;;;0.43;0.30;;;;;;;9.41;100.00;99029.72;5096129;27;97745;-27
2024/01/03 07:10:57;;;;;;;0.93;0.43;;;;;;;9.40;100.00;99029.88;5095977;27;96466;-28
2024/01/03 07:13:23;;;;;;;1.42;0.47;;;;;;;9.43;100.00;99035.88;5096328;27;96748;-27
2024/01/03 07:15:48;;;;;;;1.90;0.55;;;;;;;9.45;100.00;99033.03;5095837;27;97437;-27
2024/01/03 07:18:13;;;;;;;1.08;0.15;;;;;;;9.43;100.00;99043.13;5095940;27;97261;-27
2024/01/03 07:20:39;;;;;;;1.73;0.55;;;;;;;9.43;100.00;99033.16;5095447;27;96495;-28
2024/01/03 07:23:04;;;;;;;0.80;0.20;;;;;;;9.49;100.00;99039.91;5096025;27;96761;-27
2024/01/03 07:25:29;;;;;;;4.00;0.20;;;;;;;9.55;100.00;99040.19;5095809;27;97589;-27
2024/01/03 07:27:55;;;;;;;0.63;0.20;;;;;;;9.58;100.00;99044.47;5095646;27;97410;-29
2024/01/03 07:30:21;;;;;;;9.55;1.13;;;;;;;9.58;100.00;99049.88;5095812;27;96562;-26
2024/01/03 07:32:47;;;;;;;2.55;1.08;;;;;;;9.60;100.00;99044.34;5095674;27;96821;-27
2024/01/03 07:35:12;;;;;;;0.25;0.25;;;;;;;9.60;100.00;99045.22;5095412;27;99437;-27
2024/01/03 07:37:38;;;;;;;1.35;0.20;;;;;;;9.60;100.00;99045.22;5095754;27;99325;-27
2024/01/03 07:40:04;;;;;;;0.80;0.40;;;;;;;9.66;100.00;99058.22;5095677;27;96722;-27
2024/01/03 07:42:29;;;;;;;1.77;0.30;;;;;;;9.65;100.00;99047.50;5076927;27;96928;-27
2024/01/03 07:44:54;;;;;;;1.75;0.30;;;;;;;9.64;100.00;99043.97;5094772;27;99890;-27
2024/01/03 07:47:20;;;;;;;0.70;0.40;;;;;;;9.68;100.00;99042.72;5095406;27;97736;-27
2024/01/03 07:49:45;;;;;;;1.95;0.32;;;;;;;9.73;100.00;99062.09;5095468;27;96437;-27
2024/01/03 07:52:11;;;;;;;0.20;0.20;;;;;;;9.75;100.00;99059.28;5095370;27;96710;-27
2024/01/03 07:54:36;;;;;;;2.55;0.32;;;;;;;9.75;100.00;99057.41;5096979;27;98005;-27
2024/01/03 07:57:04;;;;;;;0.90;0.10;;;;;;;9.75;100.00;99064.69;5099029;27;97392;-27
2024/01/03 07:59:31;;;;;;;1.92;0.47;;;;;;;9.79;100.00;99066.09;5098948;27;96656;-27
2024/01/03 08:01:56;;;;;;;1.40;0.32;;;;;;;9.78;100.00;99067.94;5080713;27;96786;-27
2024/01/03 08:04:21;;;;;;;3.03;0.80;;;;;;;9.79;100.00;99066.09;5098827;27;97427;-29
2024/01/03 08:06:47;;;;;;;1.42;0.30;;;;;;;9.83;100.00;99070.25;5098492;27;99153;-27
2024/01/03 08:09:12;;;;;;;3.13;0.68;;;;;;;9.91;100.00;99083.94;5098651;27;96495;-27
2024/01/03 08:11:37;;;;;;;3.67;0.70;;;;;;;9.88;100.00;99080.69;5098946;27;96805;-27
2024/01/03 08:14:03;;;;;;;2.97;0.73;;;;;;;9.93;100.00;99081.97;5098395;27;99648;-27
2024/01/03 08:16:28;;;;;;;3.65;0.68;;;;;;;9.94;100.00;99088.28;5098545;27;97420;-27
2024/01/03 08:18:54;;;;;;;4.50;0.52;;;;;;;9.91;100.00;99083.09;5098873;27;96693;-28
2024/01/03 08:21:20;;;;;;;8.60;0.40;;;;;;;9.90;100.00;99089.53;5098953;27;96750;-27
2024/01/03 08:23:45;;;;;;;5.22;1.10;;;;;;;9.90;100.00;99086.81;5079831;27;100796;-28
2024/01/03 08:26:12;;;;;;;4.28;1.15;;;;;;;9.91;100.00;99093.91;5098534;27;99373;-28
2024/01/03 08:28:40;;;;;;;2.05;0.35;;;;;;;9.87;100.00;99076.28;5079793;27;96602;-27
2024/01/03 08:31:06;;;;;;;1.20;0.63;;;;;;;9.86;100.00;99082.66;5079867;27;96851;-29
2024/01/03 08:33:35;;;;;;;2.35;0.40;;;;;;;9.77;100.00;99070.78;5079173;27;100763;-27
2024/01/03 08:36:02;;;;;;;2.08;0.80;;;;;;;9.83;100.00;99086.47;5079876;27;99512;-27
2024/01/03 08:38:27;;;;;;;11.35;0.90;;;;;;;9.81;100.00;99085.75;5080079;27;96736;-27
2024/01/03 08:40:52;;;;;;;3.35;0.65;;;;;;;9.80;100.00;99089.47;5098264;27;96772;-28
2024/01/03 08:43:18;;;;;;;2.35;1.05;;;;;;;9.81;100.00;99087.63;5097955;27;97827;-27
2024/01/03 08:45:43;;;;;;;1.08;0.43;;;;;;;9.81;100.00;99093.03;5098270;27;97229;-29
2024/01/03 08:48:08;;;;;;;0.45;0.20;;;;;;;9.80;100.00;99094.88;5098443;27;96558;-26
2024/01/03 08:50:34;;;;;;;0.15;0.15;;;;;;;9.82;100.00;99098.31;5098516;27;96802;-31
2024/01/03 08:52:59;;;;;;;4.05;0.95;;;;;;;9.84;100.00;99098.16;5098114;27;97870;-27
2024/01/03 08:55:25;;;;;;;3.88;0.75;;;;;;;9.80;100.00;99086.75;5097969;27;97961;-29
2024/01/03 08:57:52;;;;;;;1.13;0.38;;;;;;;9.83;100.00;99100.00;5098163;27;96435;-28
2024/01/03 09:00:18;;;;;;;2.38;0.60;;;;;;;9.87;100.00;99108.72;5079060;27;96780;-27
2024/01/03 09:02:45;;;;;;;5.50;0.68;;;;;;;9.79;100.00;99102.09;5097770;27;99063;-27
2024/01/03 09:05:10;;;;;;;1.08;0.65;;;;;;;9.81;100.00;99120.91;5097226;27;97961;-27
2024/01/03 09:07:35;;;;;;;2.05;0.50;;;;;;;9.79;100.00;99117.47;5098088;27;96526;-27
2024/01/03 09:10:01;;;;;;;0.57;0.30;;;;;;;9.76;100.00;99129.41;5079322;27;96780;-27
2024/01/03 09:12:26;;;;;;;1.80;0.63;;;;;;;9.71;100.00;99122.69;5097518;27;98957;-27
2024/01/03 09:14:51;;;;;;;2.70;0.80;;;;;;;9.67;100.00;99132.06;5098438;27;97257;-27
2024/01/03 09:17:17;;;;;;;0.17;0.13;;;;;;;9.63;100.00;99126.06;5097905;27;96451;-27
2024/01/03 09:19:42;;;;;;;1.85;0.57;;;;;;;9.65;100.00;99134.88;5097728;27;96816;-27
2024/01/03 09:22:07;;;;;;;3.33;0.38;;;;;;;9.60;100.00;99134.41;5097218;27;97937;-27
2024/01/03 09:24:33;;;;;;;2.45;0.63;;;;;;;9.64;100.00;99138.59;5097587;27;97054;-27
2024/01/03 09:26:59;;;;;;;0.20;0.20;;;;;;;9.62;100.00;99145.97;5079105;27;96620;-27
2024/01/03 09:29:24;;;;;;;4.80;0.88;;;;;;;9.54;100.00;99129.56;5097480;27;96755;-27
2024/01/03 09:31:49;;;;;;;8.73;0.85;;;;;;;9.61;100.00;99149.66;5097098;27;99367;-28
2024/01/03 09:34:15;;;;;;;1.58;0.60;;;;;;;9.67;100.00;99157.22;5097391;27;97756;-27
2024/01/03 09:36:40;;;;;;;2.85;0.75;;;;;;;9.67;100.00;99156.38;5097541;27;96455;-27
2024/01/03 09:39:05;;;;;;;6.57;0.68;;;;;;;9.68;100.00;99152.72;5097639;27;96787;-27
2024/01/03 09:41:32;;;;;;;3.97;0.50;;;;;;;9.80;100.00;99146.25;5096683;27;98096;-27
2024/01/03 09:43:58;;;;;;;1.95;0.43;;;;;;;9.76;100.00;99153.75;5078362;27;101465;-27
2024/01/03 09:46:24;;;;;;;4.43;0.65;;;;;;;9.84;100.00;99157.66;5078269;27;96690;-28
2024/01/03 09:48:49;;;;;;;2.63;0.63;;;;;;;9.92;100.00;99166.81;5097493;27;96769;-27
2024/01/03 09:51:15;;;;;;;2.45;0.45;;;;;;;9.95;100.00;99153.03;5097051;27;97889;-27
2024/01/03 09:53:41;;;;;;;0.88;0.55;;;;;;;9.97;100.00;99153.75;5096798;27;99080;-27
2024/01/03 09:56:06;;;;;;;6.97;1.00;;;;;;;10.04;100.00;99158.66;5096816;27;96626;-27
2024/01/03 09:58:33;;;;;;;1.10;0.60;;;;;;;10.06;100.00;99168.34;5096998;27;96946;-27
2024/01/03 10:00:58;;;;;;;8.10;1.15;;;;;;;10.01;100.00;99173.28;5074388;27;98400;-27
2024/01/03 10:03:24;;;;;;;0.30;0.13;;;;;;;10.00;100.00;99172.41;5076700;27;97455;-26
2024/01/03 10:06:13;;;;;;;0.22;0.22;;;;;;;10.07;100.00;99174.59;5076436;27;96493;-27
2024/01/03 10:08:39;;;;;;;1.58;0.90;;;;;;;10.06;100.00;99164.75;5076515;27;96636;-27
2024/01/03 10:11:23;;;;;;;6.28;0.57;;;;;;;10.09;100.00;99167.22;5074204;27;99100;-27
2024/01/03 10:13:52;;;;;;;0.50;0.28;;;;;;;10.16;100.00;99173.81;5074960;27;100864;-28
2024/01/03 10:16:27;;;;;;;2.97;0.93;;;;;;;10.28;100.00;99177.28;5074172;27;96638;-28
2024/01/03 10:19:08;;;;;;;0.63;0.32;;;;;;;10.38;100.00;99164.69;5076107;27;96793;-27
2024/01/03 10:21:34;;;;;;;7.83;0.40;;;;;;;10.44;100.00;99175.00;5075987;27;97947;-27
2024/01/03 10:24:03;;;;;;;15.02;1.30;;;;;;;10.46;100.00;99186.53;5074489;27;101353;-27
2024/01/03 10:26:28;;;;;;;8.63;0.73;;;;;;;10.45;100.00;99184.81;5074833;27;96697;-27
2024/01/03 10:29:08;;;;;;;4.35;1.08;;;;;;;10.40;100.00;99181.66;5076477;27;96975;-27
2024/01/03 10:31:33;;;;;;;5.20;0.70;;;;;;;10.35;100.00;99170.38;5076013;27;97528;-27
2024/01/03 10:33:59;;;;;;;7.60;0.50;;;;;;;10.45;100.00;99179.41;5075694;27;97890;-27
2024/01/03 10:36:26;;;;;;;5.80;1.05;;;;;;;10.43;100.00;99178.69;5075279;27;96512;-27
2024/01/03 10:38:53;;;;;;;4.53;0.75;;;;;;;10.60;100.00;99172.63;5057562;27;96831;-28
2024/01/03 10:41:18;;;;;;;4.65;0.45;;;;;;;10.72;100.00;99169.81;5075241;27;99528;-27
2024/01/03 10:43:45;;;;;;;2.67;0.52;;;;;;;10.93;100.00;99169.75;5075725;27;97227;-27
2024/01/03 10:46:12;;;;;;;4.82;0.80;;;;;;;11.13;100.00;99163.41;5074556;27;96471;-27
2024/01/03 10:48:38;;;;;;;7.07;0.88;;;;;;;11.11;100.00;99161.78;5074467;27;96914;-27
2024/01/03 10:51:05;;;;;;;5.25;0.80;;;;;;;10.96;100.00;99192.00;5075003;27;98957;-27
2024/01/03 10:53:40;;;;;;;7.10;0.93;;;;;;;10.82;100.00;99184.25;5074259;27;98867;-27
2024/01/03 10:56:08;;;;;;;6.60;1.35;;;;;;;10.71;100.00;99190.63;5075787;27;96495;-27
2024/01/03 10:58:34;;;;;;;2.20;0.75;;;;;;;10.60;100.00;99175.34;5074174;27;96703;-27
2024/01/03 11:01:44;;;;;;;5.22;0.88;;;;;;;10.56;100.00;99171.19;5083743;27;99315;-27
2024/01/03 11:04:35;;;;;;;3.78;1.35;;;;;;;10.54;100.00;99167.78;5011954;28;99130;-27
2024/01/03 11:07:18;;;;;;;8.32;1.17;;;;;;;10.53;100.00;99176.88;5012722;28;96525;-27
2024/01/03 11:09:44;;;;;;;2.50;0.70;;;;;;;10.46;100.00;99162.16;5077429;27;96688;-27
2024/01/03 11:12:11;;;;;;;3.35;0.73;;;;;;;10.47;100.00;99176.56;5095905;27;97911;-28
2024/01/03 11:14:37;;;;;;;3.92;1.00;;;;;;;10.46;100.00;99169.44;5095771;27;98927;-27
2024/01/03 11:17:03;;;;;;;5.43;0.68;;;;;;;10.44;100.00;99168.69;5077377;27;96507;-27
2024/01/03 11:19:30;;;;;;;3.35;1.10;;;;;;;10.45;100.00;99162.31;5096269;27;96833;-27
2024/01/03 11:21:58;;;;;;;3.75;0.65;;;;;;;10.45;100.00;99165.03;5095754;27;98219;-27